sensor_id;sensor_type;location;lat;lon;timestamp;P1;durP1;ratioP1;P2;durP2;ratioP2
19032;SDS011;9649;51.042;13.804;2022-12-24T00:02:46;3.90;;;1.00;;
19032;SDS011;9649;51.042;13.804;2022-12-24T00:07:49;1.97;;;1.07;;
19032;SDS011;9649;51.042;13.804;2022-12-24T00:12:53;1.90;;;0.90;;
19032;SDS011;9649;51.042;13.804;2022-12-24T00:17:56;2.10;;;1.00;;
19032;SDS011;9649;51.042;13.804;2022-12-24T00:22:59;3.83;;;1.10;;
19032;SDS011;9649;51.042;13.804;2022-12-24T00:28:03;2.73;;;1.10;;
19032;SDS011;9649;51.042;13.804;2022-12-24T00:33:06;2.33;;;0.90;;
19032;SDS011;9649;51.042;13.804;2022-12-24T00:38:09;2.30;;;1.10;;
19032;SDS011;9649;51.042;13.804;2022-12-24T00:43:13;4.07;;;1.30;;
19032;SDS011;9649;51.042;13.804;2022-12-24T00:48:15;4.50;;;1.27;;
19032;SDS011;9649;51.042;13.804;2022-12-24T00:53:18;4.87;;;1.17;;
19032;SDS011;9649;51.042;13.804;2022-12-24T00:58:22;4.00;;;1.33;;
19032;SDS011;9649;51.042;13.804;2022-12-24T01:03:25;7.30;;;1.50;;
19032;SDS011;9649;51.042;13.804;2022-12-24T01:08:35;5.03;;;1.80;;
19032;SDS011;9649;51.042;13.804;2022-12-24T01:13:40;4.17;;;1.20;;
19032;SDS011;9649;51.042;13.804;2022-12-24T01:18:42;5.73;;;1.63;;
19032;SDS011;9649;51.042;13.804;2022-12-24T01:23:45;8.50;;;1.43;;
19032;SDS011;9649;51.042;13.804;2022-12-24T01:28:49;7.13;;;1.73;;
19032;SDS011;9649;51.042;13.804;2022-12-24T01:33:52;4.93;;;1.47;;
19032;SDS011;9649;51.042;13.804;2022-12-24T01:38:54;5.23;;;1.47;;
19032;SDS011;9649;51.042;13.804;2022-12-24T01:49:31;11.80;;;2.23;;
19032;SDS011;9649;51.042;13.804;2022-12-24T01:54:35;8.40;;;1.87;;
19032;SDS011;9649;51.042;13.804;2022-12-24T01:59:44;10.00;;;1.90;;
19032;SDS011;9649;51.042;13.804;2022-12-24T02:04:52;8.57;;;1.70;;
19032;SDS011;9649;51.042;13.804;2022-12-24T02:10:00;11.17;;;2.03;;
19032;SDS011;9649;51.042;13.804;2022-12-24T02:15:04;7.70;;;2.40;;
19032;SDS011;9649;51.042;13.804;2022-12-24T02:20:28;9.40;;;1.63;;
19032;SDS011;9649;51.042;13.804;2022-12-24T02:25:46;9.90;;;1.70;;
19032;SDS011;9649;51.042;13.804;2022-12-24T02:31:01;8.17;;;1.57;;
19032;SDS011;9649;51.042;13.804;2022-12-24T02:36:08;5.37;;;1.57;;
19032;SDS011;9649;51.042;13.804;2022-12-24T02:41:19;4.00;;;1.40;;
19032;SDS011;9649;51.042;13.804;2022-12-24T02:46:27;5.30;;;1.30;;
19032;SDS011;9649;51.042;13.804;2022-12-24T02:51:32;6.13;;;1.07;;
19032;SDS011;9649;51.042;13.804;2022-12-24T02:56:37;7.17;;;1.27;;
19032;SDS011;9649;51.042;13.804;2022-12-24T03:01:54;4.37;;;1.50;;
19032;SDS011;9649;51.042;13.804;2022-12-24T03:07:05;5.53;;;1.40;;
19032;SDS011;9649;51.042;13.804;2022-12-24T03:12:15;7.40;;;1.37;;
19032;SDS011;9649;51.042;13.804;2022-12-24T03:17:23;6.40;;;1.33;;
19032;SDS011;9649;51.042;13.804;2022-12-24T03:22:26;5.63;;;1.17;;
19032;SDS011;9649;51.042;13.804;2022-12-24T03:27:29;3.57;;;1.23;;
19032;SDS011;9649;51.042;13.804;2022-12-24T03:32:34;9.27;;;1.67;;
19032;SDS011;9649;51.042;13.804;2022-12-24T03:37:36;6.90;;;1.43;;
19032;SDS011;9649;51.042;13.804;2022-12-24T03:42:39;6.90;;;1.30;;
19032;SDS011;9649;51.042;13.804;2022-12-24T03:47:43;8.73;;;1.27;;
19032;SDS011;9649;51.042;13.804;2022-12-24T03:52:46;5.63;;;1.37;;
19032;SDS011;9649;51.042;13.804;2022-12-24T03:57:49;5.80;;;1.37;;
19032;SDS011;9649;51.042;13.804;2022-12-24T04:02:53;6.63;;;1.53;;
19032;SDS011;9649;51.042;13.804;2022-12-24T04:07:56;8.17;;;1.30;;
19032;SDS011;9649;51.042;13.804;2022-12-24T04:12:58;6.10;;;1.30;;
19032;SDS011;9649;51.042;13.804;2022-12-24T04:18:02;7.80;;;1.10;;
19032;SDS011;9649;51.042;13.804;2022-12-24T04:23:05;7.37;;;1.50;;
19032;SDS011;9649;51.042;13.804;2022-12-24T04:28:08;2.73;;;1.07;;
19032;SDS011;9649;51.042;13.804;2022-12-24T04:33:12;5.83;;;1.27;;
19032;SDS011;9649;51.042;13.804;2022-12-24T04:38:14;5.40;;;1.40;;
19032;SDS011;9649;51.042;13.804;2022-12-24T04:43:17;8.13;;;1.30;;
19032;SDS011;9649;51.042;13.804;2022-12-24T04:48:21;3.43;;;1.20;;
19032;SDS011;9649;51.042;13.804;2022-12-24T04:53:24;6.57;;;1.10;;
19032;SDS011;9649;51.042;13.804;2022-12-24T04:58:27;7.90;;;1.27;;
19032;SDS011;9649;51.042;13.804;2022-12-24T05:03:31;4.97;;;1.10;;
19032;SDS011;9649;51.042;13.804;2022-12-24T05:08:35;5.03;;;1.30;;
19032;SDS011;9649;51.042;13.804;2022-12-24T05:13:37;5.60;;;1.70;;
19032;SDS011;9649;51.042;13.804;2022-12-24T05:18:48;5.30;;;1.23;;
19032;SDS011;9649;51.042;13.804;2022-12-24T05:23:51;5.23;;;1.27;;
19032;SDS011;9649;51.042;13.804;2022-12-24T05:29:12;5.60;;;1.77;;
19032;SDS011;9649;51.042;13.804;2022-12-24T05:34:16;4.87;;;1.30;;
19032;SDS011;9649;51.042;13.804;2022-12-24T05:39:19;9.00;;;1.80;;
19032;SDS011;9649;51.042;13.804;2022-12-24T05:44:22;7.00;;;1.80;;
19032;SDS011;9649;51.042;13.804;2022-12-24T05:49:26;8.37;;;1.47;;
19032;SDS011;9649;51.042;13.804;2022-12-24T05:54:29;6.63;;;1.37;;
19032;SDS011;9649;51.042;13.804;2022-12-24T05:59:32;12.03;;;1.57;;
19032;SDS011;9649;51.042;13.804;2022-12-24T06:04:36;6.13;;;2.00;;
19032;SDS011;9649;51.042;13.804;2022-12-24T06:09:39;5.87;;;1.40;;
19032;SDS011;9649;51.042;13.804;2022-12-24T06:14:41;11.77;;;2.03;;
19032;SDS011;9649;51.042;13.804;2022-12-24T06:19:45;9.00;;;1.63;;
19032;SDS011;9649;51.042;13.804;2022-12-24T06:24:48;9.57;;;1.60;;
19032;SDS011;9649;51.042;13.804;2022-12-24T06:29:51;7.80;;;1.73;;
19032;SDS011;9649;51.042;13.804;2022-12-24T06:34:55;8.23;;;1.70;;
19032;SDS011;9649;51.042;13.804;2022-12-24T06:39:57;5.33;;;1.50;;
19032;SDS011;9649;51.042;13.804;2022-12-24T06:45:00;7.27;;;1.53;;
19032;SDS011;9649;51.042;13.804;2022-12-24T06:50:10;6.40;;;1.53;;
19032;SDS011;9649;51.042;13.804;2022-12-24T06:55:13;8.00;;;1.50;;
19032;SDS011;9649;51.042;13.804;2022-12-24T07:00:16;5.87;;;1.70;;
19032;SDS011;9649;51.042;13.804;2022-12-24T07:05:20;7.17;;;1.47;;
19032;SDS011;9649;51.042;13.804;2022-12-24T07:10:23;5.20;;;1.37;;
19032;SDS011;9649;51.042;13.804;2022-12-24T07:15:26;6.70;;;1.60;;
19032;SDS011;9649;51.042;13.804;2022-12-24T07:20:30;9.20;;;1.37;;
19032;SDS011;9649;51.042;13.804;2022-12-24T07:25:32;11.33;;;1.73;;
19032;SDS011;9649;51.042;13.804;2022-12-24T07:30:35;8.33;;;1.60;;
19032;SDS011;9649;51.042;13.804;2022-12-24T07:35:40;8.47;;;1.70;;
19032;SDS011;9649;51.042;13.804;2022-12-24T07:40:42;6.20;;;1.60;;
19032;SDS011;9649;51.042;13.804;2022-12-24T07:45:45;12.20;;;1.70;;
19032;SDS011;9649;51.042;13.804;2022-12-24T07:50:49;11.50;;;2.03;;
19032;SDS011;9649;51.042;13.804;2022-12-24T07:55:53;8.53;;;1.63;;
19032;SDS011;9649;51.042;13.804;2022-12-24T08:00:56;9.53;;;2.00;;
19032;SDS011;9649;51.042;13.804;2022-12-24T08:06:01;10.47;;;1.80;;
19032;SDS011;9649;51.042;13.804;2022-12-24T08:11:04;12.73;;;2.00;;
19032;SDS011;9649;51.042;13.804;2022-12-24T08:16:08;10.23;;;1.67;;
19032;SDS011;9649;51.042;13.804;2022-12-24T08:21:12;8.20;;;1.53;;
19032;SDS011;9649;51.042;13.804;2022-12-24T08:26:15;6.00;;;1.03;;
19032;SDS011;9649;51.042;13.804;2022-12-24T08:31:18;5.77;;;1.50;;
19032;SDS011;9649;51.042;13.804;2022-12-24T08:36:22;6.83;;;1.77;;
19032;SDS011;9649;51.042;13.804;2022-12-24T08:41:25;6.20;;;1.53;;
19032;SDS011;9649;51.042;13.804;2022-12-24T08:46:27;9.13;;;1.67;;
19032;SDS011;9649;51.042;13.804;2022-12-24T08:51:31;7.03;;;1.87;;
19032;SDS011;9649;51.042;13.804;2022-12-24T08:56:34;8.50;;;1.70;;
19032;SDS011;9649;51.042;13.804;2022-12-24T09:01:37;8.57;;;1.77;;
19032;SDS011;9649;51.042;13.804;2022-12-24T09:06:41;9.13;;;2.43;;
19032;SDS011;9649;51.042;13.804;2022-12-24T09:11:44;12.13;;;2.07;;
19032;SDS011;9649;51.042;13.804;2022-12-24T09:16:46;11.50;;;2.00;;
19032;SDS011;9649;51.042;13.804;2022-12-24T09:21:50;9.60;;;2.27;;
19032;SDS011;9649;51.042;13.804;2022-12-24T09:26:53;5.60;;;1.63;;
19032;SDS011;9649;51.042;13.804;2022-12-24T09:31:58;10.17;;;2.10;;
19032;SDS011;9649;51.042;13.804;2022-12-24T09:37:02;8.57;;;1.60;;
19032;SDS011;9649;51.042;13.804;2022-12-24T09:42:06;8.50;;;2.17;;
19032;SDS011;9649;51.042;13.804;2022-12-24T09:47:21;6.30;;;1.95;;
19032;SDS011;9649;51.042;13.804;2022-12-24T09:52:29;9.40;;;2.08;;
19032;SDS011;9649;51.042;13.804;2022-12-24T09:57:37;10.65;;;2.03;;
19032;SDS011;9649;51.042;13.804;2022-12-24T10:02:42;7.78;;;1.92;;
19032;SDS011;9649;51.042;13.804;2022-12-24T10:07:48;7.40;;;2.17;;
19032;SDS011;9649;51.042;13.804;2022-12-24T10:12:58;7.05;;;2.20;;
19032;SDS011;9649;51.042;13.804;2022-12-24T10:18:08;8.43;;;2.20;;
19032;SDS011;9649;51.042;13.804;2022-12-24T10:23:24;9.95;;;2.17;;
19032;SDS011;9649;51.042;13.804;2022-12-24T10:28:40;8.18;;;1.80;;
19032;SDS011;9649;51.042;13.804;2022-12-24T10:33:48;9.18;;;2.30;;
19032;SDS011;9649;51.042;13.804;2022-12-24T10:38:57;5.68;;;1.85;;
19032;SDS011;9649;51.042;13.804;2022-12-24T10:44:00;8.52;;;2.10;;
19032;SDS011;9649;51.042;13.804;2022-12-24T10:49:06;6.60;;;2.50;;
19032;SDS011;9649;51.042;13.804;2022-12-24T10:54:15;8.43;;;1.83;;
19032;SDS011;9649;51.042;13.804;2022-12-24T10:59:27;8.57;;;2.03;;
19032;SDS011;9649;51.042;13.804;2022-12-24T11:04:32;8.65;;;1.98;;
19032;SDS011;9649;51.042;13.804;2022-12-24T11:09:55;9.50;;;2.10;;
19032;SDS011;9649;51.042;13.804;2022-12-24T11:14:59;13.27;;;2.00;;
19032;SDS011;9649;51.042;13.804;2022-12-24T11:20:14;9.70;;;1.95;;
19032;SDS011;9649;51.042;13.804;2022-12-24T11:25:21;11.63;;;2.25;;
19032;SDS011;9649;51.042;13.804;2022-12-24T11:30:29;5.30;;;1.85;;
19032;SDS011;9649;51.042;13.804;2022-12-24T11:35:39;11.07;;;2.13;;
19032;SDS011;9649;51.042;13.804;2022-12-24T11:40:48;6.63;;;1.80;;
19032;SDS011;9649;51.042;13.804;2022-12-24T11:45:59;7.70;;;1.70;;
19032;SDS011;9649;51.042;13.804;2022-12-24T11:51:18;6.93;;;1.70;;
19032;SDS011;9649;51.042;13.804;2022-12-24T11:56:29;9.70;;;1.67;;
19032;SDS011;9649;51.042;13.804;2022-12-24T12:01:46;6.28;;;2.22;;
19032;SDS011;9649;51.042;13.804;2022-12-24T12:06:54;6.93;;;1.48;;
19032;SDS011;9649;51.042;13.804;2022-12-24T12:12:04;5.22;;;1.50;;
19032;SDS011;9649;51.042;13.804;2022-12-24T12:17:12;7.95;;;1.45;;
19032;SDS011;9649;51.042;13.804;2022-12-24T12:22:23;6.78;;;1.38;;
19032;SDS011;9649;51.042;13.804;2022-12-24T12:27:32;4.30;;;1.38;;
19032;SDS011;9649;51.042;13.804;2022-12-24T12:32:41;7.25;;;1.60;;
19032;SDS011;9649;51.042;13.804;2022-12-24T12:37:51;6.60;;;1.50;;
19032;SDS011;9649;51.042;13.804;2022-12-24T12:43:01;10.52;;;1.65;;
19032;SDS011;9649;51.042;13.804;2022-12-24T12:48:19;5.55;;;1.70;;
19032;SDS011;9649;51.042;13.804;2022-12-24T12:53:37;8.27;;;1.80;;
19032;SDS011;9649;51.042;13.804;2022-12-24T12:58:51;5.67;;;1.30;;
19032;SDS011;9649;51.042;13.804;2022-12-24T13:04:07;5.73;;;1.77;;
19032;SDS011;9649;51.042;13.804;2022-12-24T13:09:45;3.43;;;1.27;;
19032;SDS011;9649;51.042;13.804;2022-12-24T13:15:23;6.57;;;2.03;;
19032;SDS011;9649;51.042;13.804;2022-12-24T13:20:37;3.40;;;1.58;;
19032;SDS011;9649;51.042;13.804;2022-12-24T13:25:43;4.95;;;1.23;;
19032;SDS011;9649;51.042;13.804;2022-12-24T13:30:49;6.03;;;1.55;;
19032;SDS011;9649;51.042;13.804;2022-12-24T13:35:57;6.22;;;1.50;;
19032;SDS011;9649;51.042;13.804;2022-12-24T13:46:47;7.38;;;1.60;;
19032;SDS011;9649;51.042;13.804;2022-12-24T13:57:32;5.22;;;1.60;;
19032;SDS011;9649;51.042;13.804;2022-12-24T14:02:47;5.18;;;1.50;;
19032;SDS011;9649;51.042;13.804;2022-12-24T14:07:53;6.63;;;1.77;;
19032;SDS011;9649;51.042;13.804;2022-12-24T14:12:58;8.65;;;1.60;;
19032;SDS011;9649;51.042;13.804;2022-12-24T14:18:02;6.45;;;1.73;;
19032;SDS011;9649;51.042;13.804;2022-12-24T14:23:05;4.43;;;1.40;;
19032;SDS011;9649;51.042;13.804;2022-12-24T14:28:20;4.70;;;1.35;;
19032;SDS011;9649;51.042;13.804;2022-12-24T14:33:28;5.72;;;1.45;;
19032;SDS011;9649;51.042;13.804;2022-12-24T14:38:32;9.25;;;2.25;;
19032;SDS011;9649;51.042;13.804;2022-12-24T14:43:39;4.90;;;1.42;;
19032;SDS011;9649;51.042;13.804;2022-12-24T14:48:52;6.63;;;1.67;;
19032;SDS011;9649;51.042;13.804;2022-12-24T14:54:04;3.17;;;1.37;;
19032;SDS011;9649;51.042;13.804;2022-12-24T14:59:16;6.67;;;1.70;;
19032;SDS011;9649;51.042;13.804;2022-12-24T15:04:21;6.30;;;1.50;;
19032;SDS011;9649;51.042;13.804;2022-12-24T15:09:25;6.53;;;1.80;;
19032;SDS011;9649;51.042;13.804;2022-12-24T15:14:30;7.07;;;1.53;;
19032;SDS011;9649;51.042;13.804;2022-12-24T15:19:43;5.63;;;1.40;;
19032;SDS011;9649;51.042;13.804;2022-12-24T15:24:52;5.13;;;1.53;;
19032;SDS011;9649;51.042;13.804;2022-12-24T15:29:56;5.03;;;1.60;;
19032;SDS011;9649;51.042;13.804;2022-12-24T15:35:00;6.77;;;1.87;;
19032;SDS011;9649;51.042;13.804;2022-12-24T15:40:04;5.10;;;1.60;;
19032;SDS011;9649;51.042;13.804;2022-12-24T15:45:11;8.50;;;2.17;;
19032;SDS011;9649;51.042;13.804;2022-12-24T15:50:25;3.93;;;1.67;;
19032;SDS011;9649;51.042;13.804;2022-12-24T15:55:32;7.57;;;1.83;;
19032;SDS011;9649;51.042;13.804;2022-12-24T16:00:38;6.10;;;2.00;;
19032;SDS011;9649;51.042;13.804;2022-12-24T16:05:43;7.33;;;1.70;;
19032;SDS011;9649;51.042;13.804;2022-12-24T16:10:47;8.33;;;1.77;;
19032;SDS011;9649;51.042;13.804;2022-12-24T16:15:52;6.67;;;2.37;;
19032;SDS011;9649;51.042;13.804;2022-12-24T16:20:58;6.20;;;2.30;;
19032;SDS011;9649;51.042;13.804;2022-12-24T16:26:01;4.67;;;1.60;;
19032;SDS011;9649;51.042;13.804;2022-12-24T16:31:03;6.00;;;1.83;;
19032;SDS011;9649;51.042;13.804;2022-12-24T16:36:08;4.07;;;1.80;;
19032;SDS011;9649;51.042;13.804;2022-12-24T16:41:11;9.83;;;2.20;;
19032;SDS011;9649;51.042;13.804;2022-12-24T16:46:14;5.63;;;2.63;;
19032;SDS011;9649;51.042;13.804;2022-12-24T16:51:18;4.87;;;2.60;;
19032;SDS011;9649;51.042;13.804;2022-12-24T16:56:21;5.17;;;2.60;;
19032;SDS011;9649;51.042;13.804;2022-12-24T17:01:24;6.00;;;2.97;;
19032;SDS011;9649;51.042;13.804;2022-12-24T17:06:33;6.20;;;3.00;;
19032;SDS011;9649;51.042;13.804;2022-12-24T17:11:36;6.13;;;3.43;;
19032;SDS011;9649;51.042;13.804;2022-12-24T17:16:39;5.87;;;3.00;;
19032;SDS011;9649;51.042;13.804;2022-12-24T17:21:43;6.10;;;3.20;;
19032;SDS011;9649;51.042;13.804;2022-12-24T17:26:46;7.30;;;3.63;;
19032;SDS011;9649;51.042;13.804;2022-12-24T17:31:49;55.37;;;22.30;;
19032;SDS011;9649;51.042;13.804;2022-12-24T17:36:53;11.03;;;4.57;;
19032;SDS011;9649;51.042;13.804;2022-12-24T17:41:56;33.23;;;13.43;;
19032;SDS011;9649;51.042;13.804;2022-12-24T17:46:58;8.47;;;3.57;;
19032;SDS011;9649;51.042;13.804;2022-12-24T17:52:05;8.43;;;3.23;;
19032;SDS011;9649;51.042;13.804;2022-12-24T17:57:07;9.90;;;3.90;;
19032;SDS011;9649;51.042;13.804;2022-12-24T18:02:10;10.30;;;4.70;;
19032;SDS011;9649;51.042;13.804;2022-12-24T18:07:15;7.13;;;3.80;;
19032;SDS011;9649;51.042;13.804;2022-12-24T18:12:17;8.43;;;3.83;;
19032;SDS011;9649;51.042;13.804;2022-12-24T18:17:20;6.33;;;4.00;;
19032;SDS011;9649;51.042;13.804;2022-12-24T18:22:24;11.73;;;5.10;;
19032;SDS011;9649;51.042;13.804;2022-12-24T18:27:27;8.40;;;4.70;;
19032;SDS011;9649;51.042;13.804;2022-12-24T18:32:30;10.80;;;4.60;;
19032;SDS011;9649;51.042;13.804;2022-12-24T18:37:34;11.37;;;5.37;;
19032;SDS011;9649;51.042;13.804;2022-12-24T18:42:38;10.87;;;5.50;;
19032;SDS011;9649;51.042;13.804;2022-12-24T18:47:41;11.10;;;6.23;;
19032;SDS011;9649;51.042;13.804;2022-12-24T18:52:49;15.10;;;7.17;;
19032;SDS011;9649;51.042;13.804;2022-12-24T18:57:52;16.30;;;8.27;;
19032;SDS011;9649;51.042;13.804;2022-12-24T19:02:55;18.93;;;10.27;;
19032;SDS011;9649;51.042;13.804;2022-12-24T19:07:59;18.87;;;9.47;;
19032;SDS011;9649;51.042;13.804;2022-12-24T19:13:22;15.67;;;8.83;;
19032;SDS011;9649;51.042;13.804;2022-12-24T19:18:24;17.10;;;8.30;;
19032;SDS011;9649;51.042;13.804;2022-12-24T19:23:28;18.40;;;9.67;;
19032;SDS011;9649;51.042;13.804;2022-12-24T20:40:16;16.17;;;7.90;;
19032;SDS011;9649;51.042;13.804;2022-12-24T20:46:03;18.03;;;7.00;;
19032;SDS011;9649;51.042;13.804;2022-12-24T21:44:29;20.17;;;5.80;;
19032;SDS011;9649;51.042;13.804;2022-12-24T21:49:32;18.73;;;8.13;;
19032;SDS011;9649;51.042;13.804;2022-12-24T21:54:49;18.30;;;7.47;;
19032;SDS011;9649;51.042;13.804;2022-12-24T22:29:36;17.00;;;8.13;;
19032;SDS011;9649;51.042;13.804;2022-12-24T22:34:39;19.00;;;6.53;;
19032;SDS011;9649;51.042;13.804;2022-12-24T22:39:41;18.70;;;7.70;;
19032;SDS011;9649;51.042;13.804;2022-12-24T22:44:47;17.80;;;4.80;;
19032;SDS011;9649;51.042;13.804;2022-12-24T22:49:50;14.67;;;5.53;;
19032;SDS011;9649;51.042;13.804;2022-12-24T22:54:52;15.00;;;5.90;;
19032;SDS011;9649;51.042;13.804;2022-12-24T22:59:56;18.10;;;5.27;;
19032;SDS011;9649;51.042;13.804;2022-12-24T23:04:59;18.13;;;6.80;;
19032;SDS011;9649;51.042;13.804;2022-12-24T23:10:02;21.97;;;6.73;;
19032;SDS011;9649;51.042;13.804;2022-12-24T23:15:07;17.17;;;5.93;;
19032;SDS011;9649;51.042;13.804;2022-12-24T23:20:10;14.87;;;5.67;;
19032;SDS011;9649;51.042;13.804;2022-12-24T23:25:13;11.33;;;4.87;;
19032;SDS011;9649;51.042;13.804;2022-12-24T23:30:17;18.43;;;5.57;;
19032;SDS011;9649;51.042;13.804;2022-12-24T23:35:20;15.47;;;5.70;;
19032;SDS011;9649;51.042;13.804;2022-12-24T23:40:22;13.43;;;5.60;;
19032;SDS011;9649;51.042;13.804;2022-12-24T23:45:27;14.73;;;4.70;;
19032;SDS011;9649;51.042;13.804;2022-12-24T23:50:30;14.23;;;4.70;;
19032;SDS011;9649;51.042;13.804;2022-12-24T23:55:32;13.17;;;4.20;;
